CheckWX is a tool to help pilots better visualize weather data.  It is not intended as a substitute for an official pre-flight weather briefing.

21:02:33 UTC

KMGY METAR
Dayton-Wright Brothers Airport
Dayton, Ohio, USA
Current

10 mins ago

KMGY 212053Z AUTO 21011G20KT 10SM OVC027 12/07 A2991 RMK AO2 RAE14 SLP132 P0000 60000 T01170072 56024
Observed
Nov-21 @ 20:53 UTC
Wind
  • 210° at 11 KTS
  • Gusting to 20 KTS
Visibility
10 SM
Flight Rules
MVFR
Cloud Levels
  • Overcast at 2,700' AGL
Temperature
12°C / 54°F
Dewpoint
C / 45°F
Humidity
72%
Altimeter
29.91" Hg
Pressure
1012.92 hPa
Current Rain
0.01"
Previous

54 mins ago

KMGY 212009Z AUTO 20013G21KT 5SM -RA OVC027 11/07 A2993 RMK AO2 P0000 T01110072
Observed
Nov-21 @ 20:09 UTC
Wind
  • 200° at 13 KTS
  • Gusting to 21 KTS
Visibility
5 SM
Flight Rules
MVFR
Conditions
Light Rain
Cloud Levels
  • Overcast at 2,700' AGL
Temperature
11°C / 52°F
Dewpoint
C / 45°F
Humidity
77%
Altimeter
29.93" Hg
Pressure
1013.52 hPa
Current Rain
0.01"
Previous

1 hour ago

KMGY 211953Z AUTO 22012G25KT 4SM -RA SCT030 BKN037 OVC046 12/06 A2993 RMK AO2 SLP138 P0000 T01170061
Observed
Nov-21 @ 19:53 UTC
Wind
  • 220° at 12 KTS
  • Gusting to 25 KTS
Visibility
4 SM
Flight Rules
MVFR
Conditions
Light Rain
Cloud Levels
  • Scattered at 3,000' AGL
  • Broken at 3,700' AGL
  • Overcast at 4,600' AGL
Temperature
12°C / 54°F
Dewpoint
C / 43°F
Humidity
67%
Altimeter
29.93" Hg
Pressure
1013.52 hPa
Current Rain
0.01"